Time;durP1;ratioP1;P1;durP2;ratioP2;P2;SDS_P1;SDS_P2;PMS_P1;PMS_P2;Temp;Humidity;BMP_temperature;BMP_pressure;BME280_temperature;BME280_humidity;BME280_pressure;Samples;Min_cycle;Max_cycle;Signal;HPM_P1;HPM_P2
2022/08/26 00:01:41;;;;;;;8.77;3.03;;;;;;;21.37;87.44;101469.91;5114494;28;20028;-34
2022/08/26 00:04:07;;;;;;;8.30;3.17;;;;;;;21.28;87.57;101465.00;5114318;28;20035;-35
2022/08/26 00:06:33;;;;;;;8.07;2.90;;;;;;;21.27;87.74;101466.09;5114880;28;20019;-34
2022/08/26 00:08:59;;;;;;;9.80;2.85;;;;;;;21.33;87.52;101481.50;5114093;28;20055;-35
2022/08/26 00:11:25;;;;;;;10.88;2.88;;;;;;;21.28;87.74;101487.03;5114234;28;20051;-34
2022/08/26 00:13:50;;;;;;;11.30;3.38;;;;;;;21.28;87.38;101487.03;5114088;28;20055;-35
2022/08/26 00:16:15;;;;;;;10.70;2.72;;;;;;;21.27;87.44;101482.59;5114906;28;20036;-35
2022/08/26 00:18:41;;;;;;;6.68;2.60;;;;;;;21.11;87.98;101486.59;5114549;28;20031;-35
2022/08/26 00:21:07;;;;;;;7.18;2.67;;;;;;;21.08;87.87;101471.50;5114468;28;20027;-35
2022/08/26 00:23:33;;;;;;;7.93;2.67;;;;;;;21.18;87.93;101486.25;5113948;28;20031;-35
2022/08/26 00:25:59;;;;;;;6.70;2.58;;;;;;;21.16;87.58;101489.28;5114730;28;20360;-35
2022/08/26 00:28:24;;;;;;;6.68;2.47;;;;;;;20.98;87.75;101467.97;5114017;28;20103;-35
2022/08/26 00:30:50;;;;;;;7.63;2.35;;;;;;;21.15;87.79;101493.16;5113884;28;20032;-35
2022/08/26 00:33:16;;;;;;;6.47;2.72;;;;;;;21.15;87.71;101490.41;5114426;28;20076;-35
2022/08/26 00:35:42;;;;;;;6.13;2.38;;;;;;;20.98;88.10;101478.97;5114003;28;20023;-34
2022/08/26 00:38:07;;;;;;;6.65;2.30;;;;;;;20.99;88.10;101492.47;5114037;28;20459;-35
2022/08/26 00:40:42;;;;;;;9.60;2.70;;;;;;;21.04;88.14;101497.09;5113952;28;20343;-34
2022/08/26 00:43:07;;;;;;;9.10;2.50;;;;;;;21.03;88.38;101487.19;5114457;28;20027;-34
2022/08/26 00:45:42;;;;;;;6.13;2.20;;;;;;;20.88;88.73;101476.28;5113716;28;20127;-34
2022/08/26 00:48:09;;;;;;;10.40;2.60;;;;;;;20.89;89.02;101494.47;5114186;28;20039;-35
2022/08/26 00:50:47;;;;;;;6.72;2.20;;;;;;;20.91;88.99;101484.81;5113677;28;20027;-35
2022/08/26 00:53:22;;;;;;;8.38;2.42;;;;;;;20.88;88.68;101484.53;5114091;28;20417;-34
2022/08/26 00:55:53;;;;;;;8.65;2.50;;;;;;;20.94;88.93;101495.25;5112324;28;20110;-34
2022/08/26 00:58:21;;;;;;;5.65;2.30;;;;;;;20.93;89.17;101503.75;5113992;28;20047;-34
2022/08/26 01:00:46;;;;;;;7.75;2.50;;;;;;;20.95;89.00;101501.56;5113489;28;20035;-35
2022/08/26 01:03:13;;;;;;;8.70;2.42;;;;;;;20.92;89.08;101502.13;5114265;28;20193;-34
2022/08/26 01:05:41;;;;;;;9.30;2.40;;;;;;;20.89;89.39;101499.94;5113355;28;20051;-35
2022/08/26 01:08:06;;;;;;;8.75;2.40;;;;;;;20.66;89.55;101466.53;5113934;28;20244;-35
2022/08/26 01:10:31;;;;;;;6.05;2.00;;;;;;;20.76;89.69;101490.41;5113710;28;20162;-35
2022/08/26 01:13:00;;;;;;;11.05;2.72;;;;;;;20.73;90.17;101485.44;5114039;28;20040;-35
2022/08/26 01:15:33;;;;;;;9.13;2.13;;;;;;;20.77;90.02;101490.09;5117572;28;20034;-35
2022/08/26 01:17:59;;;;;;;8.82;2.47;;;;;;;20.86;89.56;101495.81;5117499;28;20161;-35
2022/08/26 01:20:40;;;;;;;6.30;1.90;;;;;;;20.85;89.84;101501.63;5117581;28;20045;-35
2022/08/26 01:23:08;;;;;;;9.25;2.45;;;;;;;20.80;90.28;101491.47;5117592;28;20375;-35
2022/08/26 01:25:38;;;;;;;7.78;2.15;;;;;;;20.83;90.07;101499.13;5118099;28;20034;-35
2022/08/26 01:28:08;;;;;;;8.45;2.22;;;;;;;20.88;90.14;101499.09;5117456;28;20027;-35
2022/08/26 01:30:36;;;;;;;7.68;2.15;;;;;;;20.93;89.50;101501.00;5117197;28;20517;-35
2022/08/26 01:33:06;;;;;;;5.68;2.17;;;;;;;20.92;89.62;101491.94;5117354;28;20064;-35
2022/08/26 01:35:31;;;;;;;6.68;2.30;;;;;;;20.92;89.53;101499.38;5117567;28;20110;-35
2022/08/26 01:37:59;;;;;;;6.13;1.50;;;;;;;20.91;89.52;101486.72;5117182;28;20066;-35
2022/08/26 01:40:30;;;;;;;9.20;1.92;;;;;;;20.75;90.27;101494.25;5117548;28;20135;-35
2022/08/26 01:42:56;;;;;;;7.30;2.53;;;;;;;20.79;90.35;101484.34;5117257;28;20043;-35
2022/08/26 01:45:27;;;;;;;9.27;2.92;;;;;;;20.73;90.99;101496.44;5117384;28;20027;-35
2022/08/26 01:47:55;;;;;;;9.48;2.13;;;;;;;20.77;90.47;101492.03;5117433;28;20514;-35
2022/08/26 01:50:24;;;;;;;9.02;2.45;;;;;;;20.86;90.28;101495.81;5116705;28;20044;-35
2022/08/26 01:52:51;;;;;;;6.45;2.53;;;;;;;20.75;90.25;101483.25;5117780;28;20034;-35
2022/08/26 01:55:19;;;;;;;6.85;2.17;;;;;;;20.84;90.05;101495.31;5117171;28;20471;-35
2022/08/26 01:57:48;;;;;;;6.65;1.88;;;;;;;20.78;89.88;101482.69;5117232;28;20047;-35
2022/08/26 02:00:14;;;;;;;7.13;2.22;;;;;;;20.91;89.43;101501.28;5117061;28;20046;-35
2022/08/26 02:02:45;;;;;;;7.32;1.88;;;;;;;20.90;89.57;101490.59;5116479;28;20051;-35
2022/08/26 02:05:17;;;;;;;7.40;2.00;;;;;;;20.86;89.83;101489.50;5116743;28;20106;-35
2022/08/26 02:07:43;;;;;;;7.78;2.47;;;;;;;20.77;89.92;101498.34;5116919;28;20111;-35
2022/08/26 02:10:09;;;;;;;6.68;2.00;;;;;;;20.68;90.51;101483.56;5116521;28;20076;-35
2022/08/26 02:12:35;;;;;;;5.70;2.30;;;;;;;20.79;90.09;101485.16;5116293;28;20034;-35
2022/08/26 02:15:04;;;;;;;5.05;1.85;;;;;;;20.76;90.08;101491.22;5116221;28;20102;-35
2022/08/26 02:17:38;;;;;;;8.13;2.13;;;;;;;20.82;89.90;101483.75;5116339;28;20023;-35
2022/08/26 02:20:04;;;;;;;4.80;1.73;;;;;;;20.82;89.73;101490.06;5115991;28;20039;-35
2022/08/26 02:22:31;;;;;;;7.70;2.20;;;;;;;20.85;89.63;101498.88;5116412;28;20555;-35
2022/08/26 02:25:00;;;;;;;4.40;1.92;;;;;;;20.79;89.92;101506.34;5115523;28;20156;-35
2022/08/26 02:27:29;;;;;;;5.88;1.90;;;;;;;20.82;89.73;101503.00;5116860;27;20482;-35
2022/08/26 02:30:07;;;;;;;6.82;2.08;;;;;;;20.73;90.05;101510.19;5116418;28;20032;-35
2022/08/26 02:32:32;;;;;;;8.30;2.33;;;;;;;20.77;89.60;101512.09;5116693;28;20032;-35
2022/08/26 02:34:57;;;;;;;4.35;1.85;;;;;;;20.79;89.58;101518.16;5115862;28;20381;-35
2022/08/26 02:37:29;;;;;;;6.30;1.92;;;;;;;20.75;89.40;101499.75;5116258;28;20443;-35
2022/08/26 02:39:54;;;;;;;5.07;2.00;;;;;;;20.77;89.59;101523.09;5116775;28;20028;-35
2022/08/26 02:42:19;;;;;;;5.38;1.80;;;;;;;20.76;89.66;101524.19;5116275;28;20032;-35
2022/08/26 02:44:44;;;;;;;7.00;2.13;;;;;;;20.72;89.88;101523.09;5115875;28;20068;-35
2022/08/26 02:47:12;;;;;;;5.63;1.65;;;;;;;20.75;89.67;101519.00;5116213;28;20031;-35
2022/08/26 02:49:40;;;;;;;7.25;2.17;;;;;;;20.68;89.73;101513.78;5116095;28;20114;-35
2022/08/26 02:52:06;;;;;;;6.22;1.98;;;;;;;20.61;90.06;101518.78;5115839;28;20024;-35
2022/08/26 02:54:31;;;;;;;6.25;1.75;;;;;;;20.66;90.04;101520.69;5116000;28;20016;-35
2022/08/26 02:56:57;;;;;;;7.05;2.13;;;;;;;20.62;90.28;101522.34;5115555;28;20354;-35
2022/08/26 02:59:22;;;;;;;8.48;1.85;;;;;;;20.59;90.20;101512.72;5115302;28;20130;-35
2022/08/26 03:01:48;;;;;;;6.13;1.95;;;;;;;20.49;90.86;101519.09;5116079;28;20031;-35
2022/08/26 03:04:13;;;;;;;5.75;1.58;;;;;;;20.38;90.87;101508.41;5115441;28;20072;-35
2022/08/26 03:06:39;;;;;;;7.38;2.10;;;;;;;20.46;90.87;101508.66;5115586;28;20379;-35
2022/08/26 03:09:05;;;;;;;8.57;2.00;;;;;;;20.45;90.56;101517.19;5115427;27;20410;-35
2022/08/26 03:11:31;;;;;;;6.57;2.00;;;;;;;20.48;90.63;101517.44;5115463;28;20027;-35
2022/08/26 03:13:57;;;;;;;3.92;1.52;;;;;;;20.52;90.24;101518.53;5115097;27;20035;-35
2022/08/26 03:16:23;;;;;;;6.03;1.60;;;;;;;20.54;89.93;101508.06;5115335;28;20031;-35
2022/08/26 03:18:48;;;;;;;5.30;1.65;;;;;;;20.45;90.54;101517.19;5114991;28;20024;-35
2022/08/26 03:21:16;;;;;;;5.25;1.77;;;;;;;20.55;90.23;101511.66;5115801;28;20027;-35
2022/08/26 03:23:43;;;;;;;5.10;1.50;;;;;;;20.56;90.24;101513.31;5115658;28;20439;-35
2022/08/26 03:26:11;;;;;;;5.75;1.75;;;;;;;20.58;89.59;101517.41;5115432;28;20106;-35
2022/08/26 03:30:38;;;;;;;5.32;1.55;;;;;;;20.55;89.72;101509.75;5115825;27;20039;-35
2022/08/26 03:31:26;;;;;;;7.10;2.38;;;;;;;20.55;89.76;101517.97;5114746;28;20031;-35
2022/08/26 03:33:51;;;;;;;8.48;1.80;;;;;;;20.52;89.97;101523.22;5114803;28;20031;-35
2022/08/26 03:36:17;;;;;;;5.70;1.80;;;;;;;20.46;90.44;101524.31;5114858;28;20085;-35
2022/08/26 03:38:42;;;;;;;4.45;1.50;;;;;;;20.43;89.83;101511.13;5114589;28;20023;-35
2022/08/26 03:41:09;;;;;;;5.18;1.77;;;;;;;20.47;90.13;101520.50;5115085;28;20032;-35
2022/08/26 03:43:35;;;;;;;5.75;1.60;;;;;;;20.52;89.81;101523.22;5115021;28;20076;-35
2022/08/26 03:46:08;;;;;;;4.45;1.50;;;;;;;20.37;90.13;101515.00;5114741;28;20356;-35
2022/08/26 03:48:33;;;;;;;7.60;1.60;;;;;;;20.47;89.76;101526.81;5114752;28;20038;-35
2022/08/26 03:51:00;;;;;;;3.42;1.45;;;;;;;20.47;90.03;101521.31;5114649;28;20027;-35
2022/08/26 03:53:25;;;;;;;7.20;1.38;;;;;;;20.40;90.06;101512.53;5114622;28;20027;-35
2022/08/26 03:55:51;;;;;;;5.15;1.33;;;;;;;20.41;90.04;101516.09;5115240;28;20065;-35
2022/08/26 03:58:16;;;;;;;8.65;1.60;;;;;;;20.32;90.24;101513.91;5114853;28;20108;-35
2022/08/26 04:00:42;;;;;;;4.13;1.50;;;;;;;20.24;90.71;101511.72;5114138;28;20019;-35
2022/08/26 04:03:07;;;;;;;6.10;1.50;;;;;;;20.31;91.10;101526.00;5113083;28;20596;-35
2022/08/26 04:05:32;;;;;;;6.40;1.40;;;;;;;20.27;91.06;101522.16;5114024;28;20035;-35
2022/08/26 04:07:58;;;;;;;6.53;1.80;;;;;;;20.26;91.17;101514.22;5114287;28;20475;-35
2022/08/26 04:10:23;;;;;;;7.15;1.58;;;;;;;20.23;91.43;101514.78;5113947;28;20157;-35
2022/08/26 04:12:50;;;;;;;6.97;1.88;;;;;;;20.25;91.31;101516.16;5114480;28;20435;-34
2022/08/26 04:15:20;;;;;;;6.70;1.60;;;;;;;20.21;91.03;101506.00;5114870;28;20112;-34
2022/08/26 04:17:46;;;;;;;5.20;1.52;;;;;;;20.26;90.50;101512.28;5114339;28;20027;-34
2022/08/26 04:20:12;;;;;;;9.20;1.73;;;;;;;20.28;90.80;101521.06;5113750;28;20391;-35
2022/08/26 04:22:39;;;;;;;6.72;1.50;;;;;;;20.24;91.15;101513.66;5114828;28;20088;-35
2022/08/26 04:25:05;;;;;;;6.75;1.73;;;;;;;20.21;90.44;101495.84;5113749;28;20061;-35
2022/08/26 04:27:30;;;;;;;6.70;1.45;;;;;;;20.31;90.45;101512.28;5113926;28;20405;-35
2022/08/26 04:29:56;;;;;;;5.93;1.35;;;;;;;20.36;90.38;101513.38;5113857;28;20463;-35
2022/08/26 04:32:21;;;;;;;5.43;1.83;;;;;;;20.31;90.84;101519.69;5114410;28;20031;-35
2022/08/26 04:34:46;;;;;;;6.78;1.58;;;;;;;20.33;90.51;101526.53;5113491;28;20095;-35
2022/08/26 04:37:12;;;;;;;7.72;1.98;;;;;;;20.25;90.85;101529.03;5113786;28;20024;-35
2022/08/26 04:39:37;;;;;;;12.82;1.80;;;;;;;20.30;90.29;101521.63;5113952;28;20352;-35
2022/08/26 04:42:03;;;;;;;5.65;1.85;;;;;;;20.33;90.02;101518.28;5113806;28;20429;-35
2022/08/26 04:44:29;;;;;;;3.50;0.98;;;;;;;20.32;90.42;101522.16;5113393;28;20027;-35
2022/08/26 04:46:55;;;;;;;5.68;1.77;;;;;;;20.19;90.53;101495.28;5114280;28;20027;-35
2022/08/26 04:49:21;;;;;;;7.13;1.40;;;;;;;20.32;90.20;101524.09;5113246;27;20072;-35
2022/08/26 04:51:47;;;;;;;6.50;1.15;;;;;;;20.33;90.10;101518.28;5113879;28;20459;-35
2022/08/26 04:54:13;;;;;;;4.85;1.35;;;;;;;20.39;89.94;101523.78;5113594;28;20386;-35
2022/08/26 04:56:42;;;;;;;6.57;1.23;;;;;;;20.28;90.06;101518.31;5113452;28;20383;-35
2022/08/26 04:59:14;;;;;;;4.90;1.55;;;;;;;20.32;89.98;101527.66;5114055;28;20495;-35
2022/08/26 05:01:42;;;;;;;5.22;1.20;;;;;;;20.23;90.65;101534.81;5113747;28;20528;-35
2022/08/26 05:04:08;;;;;;;5.82;1.30;;;;;;;20.32;90.09;101533.13;5113421;28;20032;-35
2022/08/26 05:06:33;;;;;;;4.55;1.50;;;;;;;20.36;90.47;101538.91;5113534;28;20360;-35
2022/08/26 05:08:58;;;;;;;5.10;1.73;;;;;;;20.32;90.29;101546.88;5113332;28;20023;-35
2022/08/26 05:11:24;;;;;;;4.88;1.35;;;;;;;20.26;90.64;101526.03;5113732;28;20063;-35
2022/08/26 05:13:49;;;;;;;7.20;1.63;;;;;;;20.33;90.33;101537.53;5113632;28;20020;-35
2022/08/26 05:16:15;;;;;;;3.33;1.27;;;;;;;20.38;90.38;101541.38;5113189;28;20042;-35
2022/08/26 05:18:42;;;;;;;4.35;1.35;;;;;;;20.37;90.33;101536.97;5113362;28;20034;-35
2022/08/26 05:21:14;;;;;;;6.50;1.73;;;;;;;20.15;91.25;101518.91;5113460;28;20061;-35
2022/08/26 05:23:39;;;;;;;5.88;1.30;;;;;;;20.26;91.09;101523.28;5113414;28;20119;-35
2022/08/26 05:26:06;;;;;;;3.20;1.40;;;;;;;20.35;91.00;101540.00;5113026;28;20027;-35
2022/08/26 05:28:32;;;;;;;6.85;2.10;;;;;;;20.31;90.74;101528.75;5113531;28;20034;-35
2022/08/26 05:30:57;;;;;;;6.18;1.77;;;;;;;20.37;90.74;101535.03;5113482;28;20423;-35
2022/08/26 05:33:22;;;;;;;4.40;1.45;;;;;;;20.28;91.02;101536.72;5113322;28;20484;-35
2022/08/26 05:35:48;;;;;;;4.90;1.48;;;;;;;20.28;91.64;101537.53;5113084;28;20547;-35
2022/08/26 05:38:16;;;;;;;6.47;1.92;;;;;;;20.39;90.86;101543.00;5113690;28;20110;-35
2022/08/26 05:40:45;;;;;;;4.80;1.48;;;;;;;20.41;90.63;101544.38;5112826;28;20055;-35
2022/08/26 05:43:12;;;;;;;6.45;1.70;;;;;;;20.38;90.86;101544.94;5113458;28;20051;-35
2022/08/26 05:45:40;;;;;;;8.75;1.75;;;;;;;20.28;91.42;101543.03;5113078;28;20062;-35
2022/08/26 05:48:07;;;;;;;5.82;1.80;;;;;;;20.26;91.37;101539.75;5113978;28;20038;-35
2022/08/26 05:50:48;;;;;;;5.22;1.45;;;;;;;20.37;90.82;101553.47;5112769;28;20031;-35
2022/08/26 05:53:16;;;;;;;5.07;1.30;;;;;;;20.21;91.42;101542.53;5113136;28;20062;-35
2022/08/26 05:55:50;;;;;;;5.32;1.42;;;;;;;20.37;90.96;101558.94;5112946;28;20032;-35
2022/08/26 05:58:19;;;;;;;3.03;1.15;;;;;;;20.39;90.61;101563.03;5112756;28;20122;-35
2022/08/26 06:00:47;;;;;;;8.73;1.95;;;;;;;20.31;91.08;101555.41;5114181;28;20402;-35
2022/08/26 06:03:13;;;;;;;6.25;1.45;;;;;;;20.27;91.35;101577.09;5117345;28;20531;-35
2022/08/26 06:05:40;;;;;;;4.70;1.42;;;;;;;20.28;91.17;101572.44;5117450;28;20031;-35
2022/08/26 06:08:12;;;;;;;5.05;1.38;;;;;;;20.33;91.10;101580.66;5116453;28;20558;-35
2022/08/26 06:10:54;;;;;;;7.78;1.80;;;;;;;20.38;90.88;101577.06;5116452;28;20027;-35
2022/08/26 06:13:25;;;;;;;5.38;1.40;;;;;;;20.40;90.72;101580.34;5116916;28;20106;-35
2022/08/26 06:15:52;;;;;;;6.00;1.40;;;;;;;20.37;91.03;101575.44;5116772;28;20122;-35
2022/08/26 06:18:23;;;;;;;4.82;1.48;;;;;;;20.43;90.11;101575.13;5116925;28;20105;-35
2022/08/26 06:20:49;;;;;;;7.25;1.38;;;;;;;20.49;89.61;101576.78;5116975;28;20074;-35
2022/08/26 06:26:01;;;;;;;5.20;1.27;;;;;;;20.69;89.00;101591.53;5116370;28;20042;-35
2022/08/26 06:28:27;;;;;;;5.00;1.27;;;;;;;20.70;88.71;101584.97;5116618;28;20123;-35
2022/08/26 06:30:56;;;;;;;6.63;1.42;;;;;;;20.72;88.64;101588.25;5116017;27;20059;-35
2022/08/26 06:33:23;;;;;;;5.95;1.25;;;;;;;20.73;88.33;101587.97;5115941;28;20475;-35
2022/08/26 06:35:49;;;;;;;4.40;1.30;;;;;;;20.73;88.24;101590.72;5116091;28;20070;-35
2022/08/26 06:38:16;;;;;;;4.88;1.10;;;;;;;20.56;88.79;101585.56;5116335;28;20031;-34
2022/08/26 06:40:50;;;;;;;5.50;1.45;;;;;;;20.72;88.34;101599.25;5115697;27;20112;-34
2022/08/26 06:43:18;;;;;;;4.60;1.00;;;;;;;20.70;88.16;101594.03;5116312;28;20027;-34
2022/08/26 06:45:44;;;;;;;5.47;1.50;;;;;;;20.79;87.73;101603.34;5116407;28;20034;-34
2022/08/26 06:48:10;;;;;;;7.47;1.52;;;;;;;20.78;87.73;101606.34;5116429;28;20115;-34
2022/08/26 06:50:36;;;;;;;5.97;1.60;;;;;;;20.81;87.28;101601.13;5116376;28;20184;-34
2022/08/26 06:53:01;;;;;;;7.30;1.50;;;;;;;20.84;87.08;101602.50;5115749;28;20438;-34
2022/08/26 06:55:26;;;;;;;4.15;1.08;;;;;;;20.89;86.90;101601.66;5115573;28;20139;-34
2022/08/26 06:57:52;;;;;;;4.80;1.27;;;;;;;20.88;87.03;101603.56;5115946;28;20135;-34
2022/08/26 07:00:19;;;;;;;4.38;1.17;;;;;;;20.90;86.61;101609.63;5115449;28;20035;-35
2022/08/26 07:02:44;;;;;;;4.57;1.17;;;;;;;20.88;86.10;101611.00;5116090;27;20433;-34
2022/08/26 07:05:10;;;;;;;4.28;1.35;;;;;;;20.87;86.02;101595.59;5115169;28;20111;-34
2022/08/26 07:07:36;;;;;;;4.03;1.10;;;;;;;21.00;85.69;101606.00;5116061;28;20092;-34
2022/08/26 07:10:03;;;;;;;4.28;1.25;;;;;;;20.97;85.58;101609.31;5114509;28;20057;-35
2022/08/26 07:12:28;;;;;;;4.15;1.10;;;;;;;20.97;85.56;101607.38;5115211;28;20546;-34
2022/08/26 07:14:54;;;;;;;6.47;1.30;;;;;;;20.85;86.11;101606.91;5115691;27;20055;-34
2022/08/26 07:17:19;;;;;;;3.35;1.10;;;;;;;20.73;86.31;101595.38;5115747;27;20435;-34
2022/08/26 07:19:45;;;;;;;3.80;1.10;;;;;;;20.83;86.37;101612.66;5115099;28;20458;-34
2022/08/26 07:22:11;;;;;;;6.25;1.35;;;;;;;20.87;86.06;101601.09;5115382;28;20042;-34
2022/08/26 07:24:40;;;;;;;7.95;1.60;;;;;;;20.92;85.70;101614.81;5115223;28;20028;-34
2022/08/26 07:27:12;;;;;;;2.92;0.93;;;;;;;20.97;85.81;101615.63;5115153;28;20471;-34
2022/08/26 07:29:38;;;;;;;5.93;1.10;;;;;;;21.01;85.36;101613.97;5114973;28;20031;-34
2022/08/26 07:32:05;;;;;;;3.83;1.17;;;;;;;20.98;85.66;101619.19;5115924;28;20370;-34
2022/08/26 07:34:31;;;;;;;4.53;1.33;;;;;;;20.95;85.59;101619.78;5115002;28;20039;-34
2022/08/26 07:36:57;;;;;;;6.72;1.55;;;;;;;20.96;84.87;101621.41;5115338;28;20036;-34
2022/08/26 07:39:23;;;;;;;4.20;1.33;;;;;;;21.00;84.34;101617.00;5115076;28;20578;-34
2022/08/26 07:41:49;;;;;;;6.38;1.33;;;;;;;20.93;84.21;101622.78;5114972;28;20106;-34
2022/08/26 07:44:14;;;;;;;4.45;1.50;;;;;;;21.04;83.74;101618.09;5114849;28;20447;-35
2022/08/26 07:46:40;;;;;;;4.85;1.30;;;;;;;21.10;83.49;101627.94;5115573;28;20036;-35
2022/08/26 07:49:05;;;;;;;4.90;1.25;;;;;;;21.08;83.56;101628.25;5114732;28;20031;-35
2022/08/26 07:51:31;;;;;;;5.20;1.40;;;;;;;21.03;83.37;101627.41;5114391;28;20028;-35
2022/08/26 07:53:57;;;;;;;5.13;1.10;;;;;;;21.05;83.80;101626.03;5114604;28;20035;-35
2022/08/26 07:56:23;;;;;;;6.07;1.27;;;;;;;21.12;83.17;101639.47;5114909;28;20030;-35
2022/08/26 07:58:52;;;;;;;6.65;1.00;;;;;;;21.12;83.32;101630.41;5115163;28;20490;-34
2022/08/26 08:01:25;;;;;;;5.57;1.48;;;;;;;21.16;82.88;101640.56;5114417;28;20084;-35
2022/08/26 08:03:52;;;;;;;4.65;1.10;;;;;;;21.21;82.75;101635.03;5114991;28;20035;-35
2022/08/26 08:06:20;;;;;;;4.95;1.20;;;;;;;21.25;82.21;101636.09;5114789;28;20544;-35
2022/08/26 08:08:45;;;;;;;6.53;1.40;;;;;;;21.33;82.43;101631.97;5114727;28;20030;-35
2022/08/26 08:11:10;;;;;;;3.85;0.90;;;;;;;21.36;81.27;101614.06;5115200;28;20027;-35
2022/08/26 08:13:37;;;;;;;6.78;1.08;;;;;;;21.45;81.38;101635.19;5114326;28;20164;-35
2022/08/26 08:16:03;;;;;;;4.20;0.90;;;;;;;21.48;81.36;101648.41;5114319;28;20227;-35
2022/08/26 08:18:29;;;;;;;4.95;1.02;;;;;;;21.50;80.60;101639.84;5114194;28;20027;-35
2022/08/26 08:20:54;;;;;;;4.68;1.13;;;;;;;21.53;80.40;101639.28;5112208;28;20032;-35
2022/08/26 08:23:20;;;;;;;3.72;1.20;;;;;;;21.52;79.58;101632.97;5113335;28;20024;-35
2022/08/26 08:25:45;;;;;;;5.60;1.30;;;;;;;21.57;80.11;101637.63;5114475;28;20028;-34
2022/08/26 08:28:10;;;;;;;6.45;1.20;;;;;;;21.62;79.22;101639.47;5114280;28;20080;-34
2022/08/26 08:30:38;;;;;;;3.88;0.98;;;;;;;21.66;79.11;101643.31;5114173;28;20110;-35
2022/08/26 08:33:03;;;;;;;5.35;1.45;;;;;;;21.51;78.72;101628.53;5114240;28;20031;-35
2022/08/26 08:35:29;;;;;;;5.20;1.23;;;;;;;21.56;78.77;101646.94;5113889;28;20027;-35
2022/08/26 08:37:55;;;;;;;5.32;1.20;;;;;;;21.49;79.49;101646.47;5113880;28;20375;-35
2022/08/26 08:40:23;;;;;;;4.38;1.17;;;;;;;21.51;79.40;101644.22;5114374;28;20069;-35
2022/08/26 08:42:55;;;;;;;5.88;1.70;;;;;;;21.51;79.56;101652.50;5114137;28;20126;-35
2022/08/26 08:45:36;;;;;;;5.50;1.20;;;;;;;21.42;79.45;101641.25;5113934;28;20033;-35
2022/08/26 08:48:36;;;;;;;5.18;1.23;;;;;;;21.51;79.85;101655.25;5114309;28;20457;-35
2022/08/26 08:51:20;;;;;;;3.40;1.10;;;;;;;21.37;79.08;101632.22;5031285;28;20434;-35
2022/08/26 08:53:48;;;;;;;3.92;1.10;;;;;;;21.51;78.79;101653.31;5031182;28;20029;-35
2022/08/26 08:56:29;;;;;;;6.53;1.23;;;;;;;21.61;78.95;101644.16;5030990;28;20362;-35
2022/08/26 08:59:19;;;;;;;4.45;0.95;;;;;;;21.68;78.47;101652.13;5031003;28;20050;-35
2022/08/26 09:01:50;;;;;;;5.65;1.23;;;;;;;21.70;77.69;101652.66;5030924;28;20477;-35
2022/08/26 09:04:36;;;;;;;5.45;1.02;;;;;;;21.64;77.45;101627.09;5030735;28;20037;-35
2022/08/26 09:07:03;;;;;;;;;;;;;;;21.81;77.71;101637.69;5031422;28;20037;-35
2022/08/26 09:09:37;;;;;;;5.13;1.23;;;;;;;21.60;78.39;101642.53;5031046;28;19920;-35
2022/08/26 09:12:09;;;;;;;4.93;1.27;;;;;;;21.53;78.53;101655.78;5031446;28;20443;-35
2022/08/26 09:14:36;;;;;;;3.58;1.10;;;;;;;21.51;78.57;101650.56;5031048;28;20083;-35
2022/08/26 09:17:37;;;;;;;6.70;1.10;;;;;;;21.54;79.03;101660.19;5030511;28;20041;-34
2022/08/26 09:20:31;;;;;;;6.95;1.48;;;;;;;21.58;78.77;101653.84;5030755;28;20445;-34
2022/08/26 09:22:57;;;;;;;5.75;1.30;;;;;;;21.63;78.51;101652.97;5030953;28;20040;-35
2022/08/26 09:25:22;;;;;;;4.10;1.23;;;;;;;21.62;78.69;101653.25;5030454;28;20029;-34
2022/08/26 09:27:50;;;;;;;5.47;1.30;;;;;;;21.64;78.88;101667.56;5086037;28;20077;-35
2022/08/26 09:30:29;;;;;;;5.18;1.20;;;;;;;21.68;78.54;101657.63;5113238;28;20360;-34
2022/08/26 09:33:10;;;;;;;5.00;1.10;;;;;;;21.65;77.72;101660.94;5113479;28;20026;-34
2022/08/26 09:35:38;;;;;;;6.03;1.27;;;;;;;21.51;77.63;101645.06;5116455;28;20024;-35
2022/08/26 09:38:26;;;;;;;4.53;1.52;;;;;;;21.59;77.76;101660.97;5117690;28;20027;-35
2022/08/26 09:40:59;;;;;;;7.97;1.40;;;;;;;21.52;78.42;101667.88;5117688;28;20038;-35
2022/08/26 09:43:27;;;;;;;5.50;1.30;;;;;;;21.60;78.05;101664.53;5118071;28;20416;-35
2022/08/26 09:46:08;;;;;;;6.45;1.30;;;;;;;21.64;77.41;101665.63;5117156;28;20106;-42
2022/08/26 09:48:36;;;;;;;3.88;0.93;;;;;;;21.67;78.05;101672.47;5117393;28;20028;-35
2022/08/26 09:51:04;;;;;;;6.15;1.30;;;;;;;21.58;76.67;101673.09;5117130;27;20035;-35
2022/08/26 09:53:36;;;;;;;5.68;1.45;;;;;;;21.48;77.21;101656.66;5117294;28;20035;-35
2022/08/26 09:56:27;;;;;;;6.68;1.30;;;;;;;21.50;77.44;101654.41;5117456;28;20447;-35
2022/08/26 09:58:54;;;;;;;6.00;1.00;;;;;;;21.40;78.18;101664.66;5117462;27;20039;-35
2022/08/26 10:01:22;;;;;;;4.18;1.20;;;;;;;21.26;78.18;101647.94;5116559;28;20035;-35
2022/08/26 10:03:49;;;;;;;6.10;1.45;;;;;;;21.34;78.81;101661.94;5116981;28;20028;-35
2022/08/26 10:06:18;;;;;;;8.43;1.75;;;;;;;21.32;78.22;101664.16;5117339;28;20031;-35
2022/08/26 10:08:50;;;;;;;4.95;0.82;;;;;;;21.31;77.94;101664.44;5116925;27;20031;-34
2022/08/26 10:11:24;;;;;;;4.80;1.23;;;;;;;21.32;77.95;101671.56;5116606;28;20043;-35
2022/08/26 10:13:57;;;;;;;7.40;1.20;;;;;;;21.38;77.65;101683.41;5117135;28;20035;-35
2022/08/26 10:16:33;;;;;;;7.07;1.30;;;;;;;21.37;77.51;101670.72;5117095;28;20028;-35
2022/08/26 10:19:07;;;;;;;6.10;1.40;;;;;;;21.27;77.77;101674.31;5116959;28;20459;-35
2022/08/26 10:21:57;;;;;;;4.30;0.82;;;;;;;21.33;77.86;101678.75;5116719;28;20026;-35
2022/08/26 10:24:30;;;;;;;4.97;0.90;;;;;;;21.29;77.88;101677.63;5116526;28;20455;-35
2022/08/26 10:27:21;;;;;;;3.88;1.02;;;;;;;21.29;78.09;101681.22;5116299;28;20475;-35
2022/08/26 10:29:51;;;;;;;6.35;1.10;;;;;;;21.32;77.57;101677.91;5116310;28;20077;-35
2022/08/26 10:32:30;;;;;;;5.28;1.23;;;;;;;21.30;77.66;101674.63;5116780;28;20027;-35
2022/08/26 10:34:55;;;;;;;4.85;1.05;;;;;;;21.32;77.00;101666.91;5116219;28;20038;-35
2022/08/26 10:37:28;;;;;;;4.00;1.10;;;;;;;21.30;77.13;101666.38;5116337;28;20024;-35
2022/08/26 10:40:01;;;;;;;4.30;1.10;;;;;;;21.39;77.59;101674.03;5116782;28;20039;-35
2022/08/26 10:42:34;;;;;;;4.88;1.20;;;;;;;21.39;77.19;101671.28;5116144;28;20070;-35
2022/08/26 10:45:09;;;;;;;6.93;1.40;;;;;;;21.38;77.42;101673.22;5116247;28;20024;-35
2022/08/26 10:47:47;;;;;;;7.00;1.10;;;;;;;21.40;77.64;101672.94;5115445;28;20044;-35
2022/08/26 10:50:12;;;;;;;4.63;1.20;;;;;;;21.32;77.14;101655.91;5115710;28;20020;-35
2022/08/26 10:53:01;;;;;;;5.35;1.30;;;;;;;21.46;77.39;101667.09;5116089;28;20083;-35
2022/08/26 10:55:32;;;;;;;5.53;1.30;;;;;;;21.51;76.57;101672.56;5033073;28;20048;-35
2022/08/26 10:58:12;;;;;;;3.63;1.30;;;;;;;21.52;76.67;101656.88;5032977;28;20374;-35
2022/08/26 11:03:52;;;;;;;6.03;1.80;;;;;;;21.70;76.33;101669.16;5033486;28;20095;-35
2022/08/26 11:06:18;;;;;;;5.75;1.45;;;;;;;21.63;75.83;101654.91;5032693;28;20064;-35
2022/08/26 11:08:51;;;;;;;4.87;1.07;;;;;;;21.71;76.02;101670.78;5033430;28;20060;-35
2022/08/26 11:11:40;;;;;;;6.10;1.05;;;;;;;21.63;76.15;101669.50;5032839;28;20272;-35
2022/08/26 11:14:18;;;;;;;3.20;0.65;;;;;;;21.63;75.79;101663.97;5033162;28;20038;-35
2022/08/26 11:16:51;;;;;;;7.38;1.33;;;;;;;21.78;75.90;101680.38;5032726;28;20128;-35
2022/08/26 11:19:29;;;;;;;4.85;1.17;;;;;;;21.81;75.70;101677.06;5032923;28;20041;-34
2022/08/26 11:22:06;;;;;;;4.75;1.23;;;;;;;21.74;76.02;101671.06;5032665;28;20501;-35
2022/08/26 11:24:54;;;;;;;4.30;1.38;;;;;;;21.76;75.97;101679.84;5016051;28;20052;-35
2022/08/26 11:27:22;;;;;;;7.65;1.40;;;;;;;21.72;75.76;101672.47;5032538;28;20038;-35
2022/08/26 11:30:04;;;;;;;5.45;1.50;;;;;;;21.72;75.73;101670.53;5032525;28;20034;-35
2022/08/26 11:32:32;;;;;;;4.43;1.10;;;;;;;21.68;75.44;101666.69;5076103;28;20487;-35
2022/08/26 11:35:19;;;;;;;6.47;1.52;;;;;;;21.63;76.05;101666.75;5115252;28;20114;-35
2022/08/26 11:37:50;;;;;;;6.95;1.05;;;;;;;21.68;76.12;101671.38;5104076;28;20036;-35
2022/08/26 11:40:19;;;;;;;3.65;1.02;;;;;;;21.67;75.61;101662.31;5114937;28;20027;-35